Terminal Aerodrome Forecast
Issued by NWS

Home | Current Version | Previous Version | Text Only | Print | Product List | Glossary On
Versions: 1 2 3 4 5 6 7 8 9 10 11 12 13 14 15 16 17 18 19 20 21 22 23 24 25
000
FTUS46 KSEW 270500
TAFOLM
TAF
KOLM 270521Z 2706/2806 20010KT P6SM -RA SCT030 OVC080
     FM270800 20012G22KT P6SM -RA OVC022
     FM271100 17010KT 4SM -RA BR BKN009 OVC015
     FM272000 18010KT P6SM -RA SCT015 OVC025=

USA.gov is the U.S. government's official web portal to all federal, state and local government web resources and services.